sensor_id;sensor_type;location;lat;lon;timestamp;P1;durP1;ratioP1;P2;durP2;ratioP2
27424;SDS011;15244;49.088;11.886;2024-03-02T00:03:23;61.42;;;33.20;;
27424;SDS011;15244;49.088;11.886;2024-03-02T00:08:26;59.40;;;33.35;;
27424;SDS011;15244;49.088;11.886;2024-03-02T00:13:29;60.30;;;33.17;;
27424;SDS011;15244;49.088;11.886;2024-03-02T00:18:32;60.63;;;33.75;;
27424;SDS011;15244;49.088;11.886;2024-03-02T00:23:36;55.63;;;32.83;;
27424;SDS011;15244;49.088;11.886;2024-03-02T00:28:38;56.83;;;33.28;;
27424;SDS011;15244;49.088;11.886;2024-03-02T00:33:45;62.00;;;34.25;;
27424;SDS011;15244;49.088;11.886;2024-03-02T00:38:51;60.33;;;34.10;;
27424;SDS011;15244;49.088;11.886;2024-03-02T00:43:57;59.08;;;34.28;;
27424;SDS011;15244;49.088;11.886;2024-03-02T00:49:05;57.90;;;33.40;;
27424;SDS011;15244;49.088;11.886;2024-03-02T00:54:13;62.40;;;33.42;;
27424;SDS011;15244;49.088;11.886;2024-03-02T00:59:16;57.70;;;33.08;;
27424;SDS011;15244;49.088;11.886;2024-03-02T01:04:19;59.80;;;35.13;;
27424;SDS011;15244;49.088;11.886;2024-03-02T01:09:21;60.72;;;35.22;;
27424;SDS011;15244;49.088;11.886;2024-03-02T01:14:24;54.67;;;33.28;;
27424;SDS011;15244;49.088;11.886;2024-03-02T01:19:27;58.88;;;33.60;;
27424;SDS011;15244;49.088;11.886;2024-03-02T01:24:30;56.88;;;33.90;;
27424;SDS011;15244;49.088;11.886;2024-03-02T01:29:32;55.53;;;32.35;;
27424;SDS011;15244;49.088;11.886;2024-03-02T01:34:35;54.05;;;32.40;;
27424;SDS011;15244;49.088;11.886;2024-03-02T01:39:37;52.55;;;31.05;;
27424;SDS011;15244;49.088;11.886;2024-03-02T01:44:41;49.90;;;29.45;;
27424;SDS011;15244;49.088;11.886;2024-03-02T01:49:44;47.55;;;29.58;;
27424;SDS011;15244;49.088;11.886;2024-03-02T01:54:46;45.85;;;29.13;;
27424;SDS011;15244;49.088;11.886;2024-03-02T01:59:49;47.83;;;29.80;;
27424;SDS011;15244;49.088;11.886;2024-03-02T02:04:52;44.47;;;28.63;;
27424;SDS011;15244;49.088;11.886;2024-03-02T02:09:54;50.70;;;29.02;;
27424;SDS011;15244;49.088;11.886;2024-03-02T02:14:57;47.40;;;28.77;;
27424;SDS011;15244;49.088;11.886;2024-03-02T02:19:59;42.22;;;26.75;;
27424;SDS011;15244;49.088;11.886;2024-03-02T02:25:02;39.85;;;26.98;;
27424;SDS011;15244;49.088;11.886;2024-03-02T02:30:04;38.80;;;25.40;;
27424;SDS011;15244;49.088;11.886;2024-03-02T02:35:07;39.63;;;25.63;;
27424;SDS011;15244;49.088;11.886;2024-03-02T02:40:09;34.38;;;22.40;;
27424;SDS011;15244;49.088;11.886;2024-03-02T02:45:11;30.05;;;21.77;;
27424;SDS011;15244;49.088;11.886;2024-03-02T02:50:16;28.98;;;20.55;;
27424;SDS011;15244;49.088;11.886;2024-03-02T02:55:18;34.58;;;21.50;;
27424;SDS011;15244;49.088;11.886;2024-03-02T03:00:20;26.42;;;19.17;;
27424;SDS011;15244;49.088;11.886;2024-03-02T03:05:24;25.08;;;19.15;;
27424;SDS011;15244;49.088;11.886;2024-03-02T03:10:26;24.85;;;18.25;;
27424;SDS011;15244;49.088;11.886;2024-03-02T03:15:29;21.48;;;17.42;;
27424;SDS011;15244;49.088;11.886;2024-03-02T03:20:31;22.63;;;17.17;;
27424;SDS011;15244;49.088;11.886;2024-03-02T03:25:33;20.88;;;16.30;;
27424;SDS011;15244;49.088;11.886;2024-03-02T03:30:36;21.40;;;16.67;;
27424;SDS011;15244;49.088;11.886;2024-03-02T03:35:39;20.45;;;16.38;;
27424;SDS011;15244;49.088;11.886;2024-03-02T03:40:41;21.23;;;16.02;;
27424;SDS011;15244;49.088;11.886;2024-03-02T03:45:44;20.92;;;16.20;;
27424;SDS011;15244;49.088;11.886;2024-03-02T03:50:46;21.55;;;15.82;;
27424;SDS011;15244;49.088;11.886;2024-03-02T03:55:49;22.15;;;16.13;;
27424;SDS011;15244;49.088;11.886;2024-03-02T04:00:51;19.73;;;15.82;;
27424;SDS011;15244;49.088;11.886;2024-03-02T04:05:53;20.73;;;15.45;;
27424;SDS011;15244;49.088;11.886;2024-03-02T04:10:56;18.90;;;14.95;;
27424;SDS011;15244;49.088;11.886;2024-03-02T04:15:58;19.77;;;14.48;;
27424;SDS011;15244;49.088;11.886;2024-03-02T04:21:01;21.13;;;16.13;;
27424;SDS011;15244;49.088;11.886;2024-03-02T04:26:03;21.00;;;16.25;;
27424;SDS011;15244;49.088;11.886;2024-03-02T04:31:05;20.73;;;16.55;;
27424;SDS011;15244;49.088;11.886;2024-03-02T04:36:08;22.42;;;17.38;;
27424;SDS011;15244;49.088;11.886;2024-03-02T04:41:13;22.73;;;17.15;;
27424;SDS011;15244;49.088;11.886;2024-03-02T04:46:15;22.55;;;17.48;;
27424;SDS011;15244;49.088;11.886;2024-03-02T04:51:18;25.42;;;17.38;;
27424;SDS011;15244;49.088;11.886;2024-03-02T04:56:20;24.98;;;18.23;;
27424;SDS011;15244;49.088;11.886;2024-03-02T05:01:34;26.75;;;19.35;;
27424;SDS011;15244;49.088;11.886;2024-03-02T05:06:40;28.85;;;20.35;;
27424;SDS011;15244;49.088;11.886;2024-03-02T05:11:42;27.50;;;19.85;;
27424;SDS011;15244;49.088;11.886;2024-03-02T05:16:44;29.98;;;20.27;;
27424;SDS011;15244;49.088;11.886;2024-03-02T05:21:46;26.35;;;19.23;;
27424;SDS011;15244;49.088;11.886;2024-03-02T05:26:49;25.85;;;19.65;;
27424;SDS011;15244;49.088;11.886;2024-03-02T05:31:51;28.10;;;20.33;;
27424;SDS011;15244;49.088;11.886;2024-03-02T05:36:54;29.10;;;19.73;;
27424;SDS011;15244;49.088;11.886;2024-03-02T05:41:55;26.48;;;19.02;;
27424;SDS011;15244;49.088;11.886;2024-03-02T05:46:58;26.85;;;19.55;;
27424;SDS011;15244;49.088;11.886;2024-03-02T05:52:00;26.83;;;18.75;;
27424;SDS011;15244;49.088;11.886;2024-03-02T05:57:01;23.00;;;18.08;;
27424;SDS011;15244;49.088;11.886;2024-03-02T06:02:18;23.65;;;18.30;;
27424;SDS011;15244;49.088;11.886;2024-03-02T06:07:20;23.50;;;17.98;;
27424;SDS011;15244;49.088;11.886;2024-03-02T06:12:22;25.73;;;18.00;;
27424;SDS011;15244;49.088;11.886;2024-03-02T06:17:25;22.23;;;17.58;;
27424;SDS011;15244;49.088;11.886;2024-03-02T06:22:27;23.67;;;18.60;;
27424;SDS011;15244;49.088;11.886;2024-03-02T06:27:30;21.92;;;17.63;;
27424;SDS011;15244;49.088;11.886;2024-03-02T06:32:32;24.30;;;17.58;;
27424;SDS011;15244;49.088;11.886;2024-03-02T06:37:36;23.33;;;18.05;;
27424;SDS011;15244;49.088;11.886;2024-03-02T06:42:38;25.55;;;18.60;;
27424;SDS011;15244;49.088;11.886;2024-03-02T06:47:40;27.17;;;19.42;;
27424;SDS011;15244;49.088;11.886;2024-03-02T06:52:42;28.25;;;20.17;;
27424;SDS011;15244;49.088;11.886;2024-03-02T06:57:45;29.83;;;21.00;;
27424;SDS011;15244;49.088;11.886;2024-03-02T07:02:49;31.02;;;22.02;;
27424;SDS011;15244;49.088;11.886;2024-03-02T07:07:51;28.65;;;20.65;;
27424;SDS011;15244;49.088;11.886;2024-03-02T07:12:53;26.55;;;19.33;;
27424;SDS011;15244;49.088;11.886;2024-03-02T07:17:55;27.27;;;18.80;;
27424;SDS011;15244;49.088;11.886;2024-03-02T07:22:57;25.95;;;18.42;;
27424;SDS011;15244;49.088;11.886;2024-03-02T07:27:59;30.95;;;19.65;;
27424;SDS011;15244;49.088;11.886;2024-03-02T07:33:02;27.85;;;20.20;;
27424;SDS011;15244;49.088;11.886;2024-03-02T07:38:03;30.77;;;20.90;;
27424;SDS011;15244;49.088;11.886;2024-03-02T07:43:05;25.98;;;19.45;;
27424;SDS011;15244;49.088;11.886;2024-03-02T07:48:07;31.10;;;21.85;;
27424;SDS011;15244;49.088;11.886;2024-03-02T07:53:09;28.60;;;21.15;;
27424;SDS011;15244;49.088;11.886;2024-03-02T07:58:11;37.63;;;25.25;;
27424;SDS011;15244;49.088;11.886;2024-03-02T08:03:15;37.15;;;25.15;;
27424;SDS011;15244;49.088;11.886;2024-03-02T08:08:21;38.17;;;25.63;;
27424;SDS011;15244;49.088;11.886;2024-03-02T08:13:23;39.40;;;25.30;;
27424;SDS011;15244;49.088;11.886;2024-03-02T08:18:25;38.85;;;24.67;;
27424;SDS011;15244;49.088;11.886;2024-03-02T08:23:27;41.58;;;26.85;;
27424;SDS011;15244;49.088;11.886;2024-03-02T08:28:29;44.35;;;27.80;;
27424;SDS011;15244;49.088;11.886;2024-03-02T08:33:32;46.17;;;29.20;;
27424;SDS011;15244;49.088;11.886;2024-03-02T08:38:37;55.40;;;31.58;;
27424;SDS011;15244;49.088;11.886;2024-03-02T08:43:40;51.10;;;30.20;;
27424;SDS011;15244;49.088;11.886;2024-03-02T08:48:42;49.08;;;30.45;;
27424;SDS011;15244;49.088;11.886;2024-03-02T08:53:44;54.03;;;30.55;;
27424;SDS011;15244;49.088;11.886;2024-03-02T08:58:46;51.33;;;29.90;;
27424;SDS011;15244;49.088;11.886;2024-03-02T09:03:47;48.42;;;29.45;;
27424;SDS011;15244;49.088;11.886;2024-03-02T09:08:50;50.30;;;29.95;;
27424;SDS011;15244;49.088;11.886;2024-03-02T09:13:53;54.97;;;31.45;;
27424;SDS011;15244;49.088;11.886;2024-03-02T09:18:56;50.15;;;29.75;;
27424;SDS011;15244;49.088;11.886;2024-03-02T09:23:58;50.75;;;31.33;;
27424;SDS011;15244;49.088;11.886;2024-03-02T09:29:00;51.35;;;29.98;;
27424;SDS011;15244;49.088;11.886;2024-03-02T09:34:03;46.97;;;28.85;;
27424;SDS011;15244;49.088;11.886;2024-03-02T09:39:05;48.63;;;30.50;;
27424;SDS011;15244;49.088;11.886;2024-03-02T09:44:10;54.92;;;31.63;;
27424;SDS011;15244;49.088;11.886;2024-03-02T09:49:12;51.80;;;30.10;;
27424;SDS011;15244;49.088;11.886;2024-03-02T09:54:17;55.45;;;32.13;;
27424;SDS011;15244;49.088;11.886;2024-03-02T09:59:23;52.90;;;29.70;;
27424;SDS011;15244;49.088;11.886;2024-03-02T10:04:25;48.20;;;29.52;;
27424;SDS011;15244;49.088;11.886;2024-03-02T10:09:28;50.70;;;28.00;;
27424;SDS011;15244;49.088;11.886;2024-03-02T10:14:31;46.42;;;27.40;;
27424;SDS011;15244;49.088;11.886;2024-03-02T10:19:33;45.78;;;27.25;;
27424;SDS011;15244;49.088;11.886;2024-03-02T10:24:37;43.50;;;26.13;;
27424;SDS011;15244;49.088;11.886;2024-03-02T10:29:40;48.38;;;28.17;;
27424;SDS011;15244;49.088;11.886;2024-03-02T10:34:46;47.55;;;27.52;;
27424;SDS011;15244;49.088;11.886;2024-03-02T10:39:48;45.70;;;27.23;;
27424;SDS011;15244;49.088;11.886;2024-03-02T10:44:50;44.58;;;26.65;;
27424;SDS011;15244;49.088;11.886;2024-03-02T10:49:53;45.83;;;25.50;;
27424;SDS011;15244;49.088;11.886;2024-03-02T10:54:56;44.45;;;25.85;;
27424;SDS011;15244;49.088;11.886;2024-03-02T11:00:00;40.05;;;24.48;;
27424;SDS011;15244;49.088;11.886;2024-03-02T11:05:04;43.58;;;25.73;;
27424;SDS011;15244;49.088;11.886;2024-03-02T11:10:09;48.78;;;27.25;;
27424;SDS011;15244;49.088;11.886;2024-03-02T11:15:13;42.05;;;25.65;;
27424;SDS011;15244;49.088;11.886;2024-03-02T11:20:21;41.92;;;25.38;;
27424;SDS011;15244;49.088;11.886;2024-03-02T11:25:27;44.00;;;27.02;;
27424;SDS011;15244;49.088;11.886;2024-03-02T11:35:41;41.22;;;24.70;;
27424;SDS011;15244;49.088;11.886;2024-03-02T11:40:49;40.25;;;24.20;;
27424;SDS011;15244;49.088;11.886;2024-03-02T11:45:56;39.95;;;24.60;;
27424;SDS011;15244;49.088;11.886;2024-03-02T11:51:00;38.85;;;21.80;;
27424;SDS011;15244;49.088;11.886;2024-03-02T11:56:02;40.45;;;23.35;;
27424;SDS011;15244;49.088;11.886;2024-03-02T12:01:04;37.42;;;22.83;;
27424;SDS011;15244;49.088;11.886;2024-03-02T12:06:06;35.60;;;22.35;;
27424;SDS011;15244;49.088;11.886;2024-03-02T12:11:08;34.95;;;21.63;;
27424;SDS011;15244;49.088;11.886;2024-03-02T12:16:24;33.28;;;20.52;;
27424;SDS011;15244;49.088;11.886;2024-03-02T12:21:28;36.63;;;22.02;;
27424;SDS011;15244;49.088;11.886;2024-03-02T12:26:30;36.92;;;22.10;;
27424;SDS011;15244;49.088;11.886;2024-03-02T12:31:31;33.42;;;21.42;;
27424;SDS011;15244;49.088;11.886;2024-03-02T12:36:38;34.50;;;21.08;;
27424;SDS011;15244;49.088;11.886;2024-03-02T12:41:40;36.75;;;21.25;;
27424;SDS011;15244;49.088;11.886;2024-03-02T12:46:42;32.10;;;20.75;;
27424;SDS011;15244;49.088;11.886;2024-03-02T12:51:44;33.83;;;22.50;;
27424;SDS011;15244;49.088;11.886;2024-03-02T12:56:48;34.38;;;21.13;;
27424;SDS011;15244;49.088;11.886;2024-03-02T13:01:53;33.70;;;20.83;;
27424;SDS011;15244;49.088;11.886;2024-03-02T13:12:02;28.20;;;18.08;;
27424;SDS011;15244;49.088;11.886;2024-03-02T13:17:05;27.23;;;18.00;;
27424;SDS011;15244;49.088;11.886;2024-03-02T13:22:10;30.38;;;20.00;;
27424;SDS011;15244;49.088;11.886;2024-03-02T13:27:12;27.05;;;17.88;;
27424;SDS011;15244;49.088;11.886;2024-03-02T13:32:14;32.22;;;20.30;;
27424;SDS011;15244;49.088;11.886;2024-03-02T13:37:16;31.33;;;19.25;;
27424;SDS011;15244;49.088;11.886;2024-03-02T13:42:18;26.98;;;18.33;;
27424;SDS011;15244;49.088;11.886;2024-03-02T13:47:20;27.42;;;17.60;;
27424;SDS011;15244;49.088;11.886;2024-03-02T13:52:22;30.20;;;19.15;;
27424;SDS011;15244;49.088;11.886;2024-03-02T13:57:24;31.23;;;18.52;;
27424;SDS011;15244;49.088;11.886;2024-03-02T14:02:27;30.55;;;18.98;;
27424;SDS011;15244;49.088;11.886;2024-03-02T14:07:29;27.38;;;18.90;;
27424;SDS011;15244;49.088;11.886;2024-03-02T14:12:31;28.85;;;18.52;;
27424;SDS011;15244;49.088;11.886;2024-03-02T14:17:34;27.98;;;18.92;;
27424;SDS011;15244;49.088;11.886;2024-03-02T14:22:37;26.95;;;19.25;;
27424;SDS011;15244;49.088;11.886;2024-03-02T14:27:39;27.05;;;17.35;;
27424;SDS011;15244;49.088;11.886;2024-03-02T14:33:01;28.63;;;18.55;;
27424;SDS011;15244;49.088;11.886;2024-03-02T14:38:04;29.52;;;18.25;;
27424;SDS011;15244;49.088;11.886;2024-03-02T14:43:06;24.38;;;17.25;;
27424;SDS011;15244;49.088;11.886;2024-03-02T14:48:11;26.35;;;19.25;;
27424;SDS011;15244;49.088;11.886;2024-03-02T14:53:13;24.13;;;17.08;;
27424;SDS011;15244;49.088;11.886;2024-03-02T14:58:16;22.35;;;16.50;;
27424;SDS011;15244;49.088;11.886;2024-03-02T15:03:18;22.45;;;16.20;;
27424;SDS011;15244;49.088;11.886;2024-03-02T15:08:21;25.50;;;17.58;;
27424;SDS011;15244;49.088;11.886;2024-03-02T15:13:24;26.20;;;18.00;;
27424;SDS011;15244;49.088;11.886;2024-03-02T15:18:28;24.27;;;16.63;;
27424;SDS011;15244;49.088;11.886;2024-03-02T15:23:30;27.33;;;17.15;;
27424;SDS011;15244;49.088;11.886;2024-03-02T15:28:32;24.67;;;16.85;;
27424;SDS011;15244;49.088;11.886;2024-03-02T15:33:34;25.02;;;16.73;;
27424;SDS011;15244;49.088;11.886;2024-03-02T15:38:36;23.65;;;16.20;;
27424;SDS011;15244;49.088;11.886;2024-03-02T15:43:43;22.65;;;16.50;;
27424;SDS011;15244;49.088;11.886;2024-03-02T15:48:44;22.77;;;15.80;;
27424;SDS011;15244;49.088;11.886;2024-03-02T15:53:46;21.55;;;14.85;;
27424;SDS011;15244;49.088;11.886;2024-03-02T15:58:48;20.45;;;15.50;;
27424;SDS011;15244;49.088;11.886;2024-03-02T16:03:50;21.67;;;15.43;;
27424;SDS011;15244;49.088;11.886;2024-03-02T16:08:53;21.65;;;15.38;;
27424;SDS011;15244;49.088;11.886;2024-03-02T16:13:59;21.63;;;16.13;;
27424;SDS011;15244;49.088;11.886;2024-03-02T16:19:01;25.08;;;16.38;;
27424;SDS011;15244;49.088;11.886;2024-03-02T16:24:17;23.90;;;16.15;;
27424;SDS011;15244;49.088;11.886;2024-03-02T16:29:19;25.05;;;17.02;;
27424;SDS011;15244;49.088;11.886;2024-03-02T16:34:21;21.48;;;15.27;;
27424;SDS011;15244;49.088;11.886;2024-03-02T16:39:23;25.95;;;16.10;;
27424;SDS011;15244;49.088;11.886;2024-03-02T16:44:26;26.52;;;15.02;;
27424;SDS011;15244;49.088;11.886;2024-03-02T16:49:29;21.58;;;15.10;;
27424;SDS011;15244;49.088;11.886;2024-03-02T16:54:31;18.02;;;14.15;;
27424;SDS011;15244;49.088;11.886;2024-03-02T16:59:33;19.65;;;14.23;;
27424;SDS011;15244;49.088;11.886;2024-03-02T17:04:39;22.00;;;15.30;;
27424;SDS011;15244;49.088;11.886;2024-03-02T17:10:18;22.77;;;15.60;;
27424;SDS011;15244;49.088;11.886;2024-03-02T17:15:21;21.05;;;15.23;;
27424;SDS011;15244;49.088;11.886;2024-03-02T17:20:23;23.10;;;14.48;;
27424;SDS011;15244;49.088;11.886;2024-03-02T17:25:25;23.50;;;15.15;;
27424;SDS011;15244;49.088;11.886;2024-03-02T17:30:28;20.98;;;15.32;;
27424;SDS011;15244;49.088;11.886;2024-03-02T17:35:30;20.15;;;14.00;;
27424;SDS011;15244;49.088;11.886;2024-03-02T17:40:32;22.50;;;14.88;;
27424;SDS011;15244;49.088;11.886;2024-03-02T17:45:34;21.75;;;14.52;;
27424;SDS011;15244;49.088;11.886;2024-03-02T17:50:38;21.00;;;14.18;;
27424;SDS011;15244;49.088;11.886;2024-03-02T17:55:40;19.63;;;15.10;;
27424;SDS011;15244;49.088;11.886;2024-03-02T18:00:41;23.63;;;14.95;;
27424;SDS011;15244;49.088;11.886;2024-03-02T18:05:44;22.52;;;15.82;;
27424;SDS011;15244;49.088;11.886;2024-03-02T18:10:45;22.63;;;16.45;;
27424;SDS011;15244;49.088;11.886;2024-03-02T18:15:48;22.13;;;16.50;;
27424;SDS011;15244;49.088;11.886;2024-03-02T18:20:52;25.65;;;17.52;;
27424;SDS011;15244;49.088;11.886;2024-03-02T18:25:54;24.38;;;17.20;;
27424;SDS011;15244;49.088;11.886;2024-03-02T18:30:55;26.60;;;17.08;;
27424;SDS011;15244;49.088;11.886;2024-03-02T18:35:57;21.90;;;15.80;;
27424;SDS011;15244;49.088;11.886;2024-03-02T18:41:00;19.30;;;14.38;;
27424;SDS011;15244;49.088;11.886;2024-03-02T18:46:01;22.52;;;13.88;;
27424;SDS011;15244;49.088;11.886;2024-03-02T18:51:07;17.63;;;12.65;;
27424;SDS011;15244;49.088;11.886;2024-03-02T18:56:10;19.52;;;12.90;;
27424;SDS011;15244;49.088;11.886;2024-03-02T19:01:12;17.92;;;13.05;;
27424;SDS011;15244;49.088;11.886;2024-03-02T19:06:15;18.25;;;12.50;;
27424;SDS011;15244;49.088;11.886;2024-03-02T19:11:18;16.83;;;12.77;;
27424;SDS011;15244;49.088;11.886;2024-03-02T19:16:22;17.75;;;11.00;;
27424;SDS011;15244;49.088;11.886;2024-03-02T19:21:24;13.10;;;10.60;;
27424;SDS011;15244;49.088;11.886;2024-03-02T19:26:26;13.90;;;10.50;;
27424;SDS011;15244;49.088;11.886;2024-03-02T19:31:28;12.00;;;10.20;;
27424;SDS011;15244;49.088;11.886;2024-03-02T19:36:29;15.93;;;10.93;;
27424;SDS011;15244;49.088;11.886;2024-03-02T19:41:31;14.82;;;11.25;;
27424;SDS011;15244;49.088;11.886;2024-03-02T19:46:33;14.02;;;12.25;;
27424;SDS011;15244;49.088;11.886;2024-03-02T19:51:34;12.85;;;10.93;;
27424;SDS011;15244;49.088;11.886;2024-03-02T19:56:36;16.40;;;11.90;;
27424;SDS011;15244;49.088;11.886;2024-03-02T20:01:38;14.25;;;11.30;;
27424;SDS011;15244;49.088;11.886;2024-03-02T20:06:41;13.55;;;11.18;;
27424;SDS011;15244;49.088;11.886;2024-03-02T20:11:43;15.90;;;11.75;;
27424;SDS011;15244;49.088;11.886;2024-03-02T20:16:46;14.95;;;11.63;;
27424;SDS011;15244;49.088;11.886;2024-03-02T20:21:47;15.60;;;12.07;;
27424;SDS011;15244;49.088;11.886;2024-03-02T20:26:49;13.65;;;11.68;;
27424;SDS011;15244;49.088;11.886;2024-03-02T20:31:51;15.10;;;12.43;;
27424;SDS011;15244;49.088;11.886;2024-03-02T20:36:52;16.10;;;12.00;;
27424;SDS011;15244;49.088;11.886;2024-03-02T20:41:54;14.50;;;12.15;;
27424;SDS011;15244;49.088;11.886;2024-03-02T20:46:56;15.75;;;11.80;;
27424;SDS011;15244;49.088;11.886;2024-03-02T20:51:57;13.82;;;11.70;;
27424;SDS011;15244;49.088;11.886;2024-03-02T20:57:01;18.33;;;13.10;;
27424;SDS011;15244;49.088;11.886;2024-03-02T21:02:06;15.10;;;11.98;;
27424;SDS011;15244;49.088;11.886;2024-03-02T21:07:08;14.52;;;11.93;;
27424;SDS011;15244;49.088;11.886;2024-03-02T21:12:10;16.60;;;13.60;;
27424;SDS011;15244;49.088;11.886;2024-03-02T21:17:11;18.58;;;12.73;;
27424;SDS011;15244;49.088;11.886;2024-03-02T21:22:13;19.33;;;13.88;;
27424;SDS011;15244;49.088;11.886;2024-03-02T21:27:16;15.73;;;12.85;;
27424;SDS011;15244;49.088;11.886;2024-03-02T21:32:21;16.50;;;13.90;;
27424;SDS011;15244;49.088;11.886;2024-03-02T21:37:23;18.60;;;14.43;;
27424;SDS011;15244;49.088;11.886;2024-03-02T21:42:24;19.42;;;14.95;;
27424;SDS011;15244;49.088;11.886;2024-03-02T21:47:26;19.00;;;14.75;;
27424;SDS011;15244;49.088;11.886;2024-03-02T21:52:28;17.25;;;14.05;;
27424;SDS011;15244;49.088;11.886;2024-03-02T21:57:29;20.90;;;14.23;;
27424;SDS011;15244;49.088;11.886;2024-03-02T22:02:31;18.02;;;14.63;;
27424;SDS011;15244;49.088;11.886;2024-03-02T22:07:33;18.83;;;14.32;;
27424;SDS011;15244;49.088;11.886;2024-03-02T22:12:35;20.90;;;15.10;;
27424;SDS011;15244;49.088;11.886;2024-03-02T22:17:37;20.05;;;14.95;;
27424;SDS011;15244;49.088;11.886;2024-03-02T22:22:38;21.58;;;15.93;;
27424;SDS011;15244;49.088;11.886;2024-03-02T22:27:42;22.45;;;15.35;;
27424;SDS011;15244;49.088;11.886;2024-03-02T22:32:44;19.52;;;15.57;;
27424;SDS011;15244;49.088;11.886;2024-03-02T22:37:47;19.27;;;15.55;;
27424;SDS011;15244;49.088;11.886;2024-03-02T22:42:49;20.23;;;15.23;;
27424;SDS011;15244;49.088;11.886;2024-03-02T22:47:50;19.00;;;15.70;;
27424;SDS011;15244;49.088;11.886;2024-03-02T22:52:53;21.25;;;16.02;;
27424;SDS011;15244;49.088;11.886;2024-03-02T22:57:55;22.25;;;15.18;;
27424;SDS011;15244;49.088;11.886;2024-03-02T23:02:58;21.25;;;15.55;;
27424;SDS011;15244;49.088;11.886;2024-03-02T23:07:59;24.38;;;16.95;;
27424;SDS011;15244;49.088;11.886;2024-03-02T23:13:01;21.65;;;16.65;;
27424;SDS011;15244;49.088;11.886;2024-03-02T23:18:03;22.50;;;17.08;;
27424;SDS011;15244;49.088;11.886;2024-03-02T23:23:06;23.90;;;17.88;;
27424;SDS011;15244;49.088;11.886;2024-03-02T23:28:09;23.45;;;17.05;;
27424;SDS011;15244;49.088;11.886;2024-03-02T23:33:11;26.35;;;18.73;;
27424;SDS011;15244;49.088;11.886;2024-03-02T23:38:13;24.20;;;16.70;;
27424;SDS011;15244;49.088;11.886;2024-03-02T23:43:15;23.63;;;17.30;;
27424;SDS011;15244;49.088;11.886;2024-03-02T23:48:17;22.02;;;16.75;;
27424;SDS011;15244;49.088;11.886;2024-03-02T23:53:18;22.88;;;17.08;;
27424;SDS011;15244;49.088;11.886;2024-03-02T23:58:20;21.63;;;17.15;;
